createdAt,value
2023-04-16T00:02:03.722Z,100248.41
2023-04-16T00:04:31.312Z,100241.53
2023-04-16T00:06:58.425Z,100243.25
2023-04-16T00:09:25.564Z,100250.13
2023-04-16T00:11:52.600Z,100253.53
2023-04-16T00:14:19.721Z,100256.09
2023-04-16T00:16:46.928Z,100256.09
2023-04-16T00:19:14.064Z,100256.09
2023-04-16T00:21:41.407Z,100262.13
2023-04-16T00:24:08.677Z,100265.59
2023-04-16T00:26:35.675Z,100259.56
2023-04-16T00:29:02.813Z,100265.59
2023-04-16T00:31:31.530Z,100260.44
2023-04-16T00:33:59.382Z,100263.84
2023-04-16T00:36:28.068Z,100253.50
2023-04-16T00:38:56.246Z,100264.72
2023-04-16T00:41:23.951Z,100256.97
2023-04-16T00:43:51.801Z,100262.16
2023-04-16T00:46:24.149Z,100263.84
2023-04-16T00:48:53.082Z,100256.16
2023-04-16T00:51:21.696Z,100267.31
2023-04-16T00:53:49.109Z,100260.44
2023-04-16T00:56:17.645Z,100263.88
2023-04-16T00:58:45.100Z,100275.97
2023-04-16T01:01:14.698Z,100282.88
2023-04-16T01:03:48.145Z,100275.97
2023-04-16T01:06:17.691Z,100275.97
2023-04-16T01:08:45.679Z,100276.84
2023-04-16T01:11:12.781Z,100274.25
2023-04-16T01:13:40.077Z,100270.84
2023-04-16T01:16:08.565Z,100276.03
2023-04-16T01:18:36.422Z,100279.47
2023-04-16T01:21:04.276Z,100286.38
2023-04-16T01:23:32.224Z,100282.09
2023-04-16T01:25:59.372Z,100288.09
2023-04-16T01:28:26.794Z,100281.22
2023-04-16T01:30:53.829Z,100282.94
2023-04-16T01:33:43.921Z,100282.09
2023-04-16T01:36:12.305Z,100286.41
2023-04-16T01:38:39.559Z,100266.63
2023-04-16T01:41:06.666Z,100281.22
2023-04-16T01:43:35.394Z,100282.91
2023-04-16T01:46:14.480Z,100277.75
2023-04-16T01:48:41.824Z,100286.41
2023-04-16T01:51:09.464Z,100270.94
2023-04-16T01:53:37.281Z,100280.38
2023-04-16T01:56:04.814Z,100278.66
2023-04-16T01:58:33.147Z,100281.25
2023-04-16T02:01:00.725Z,100276.94
2023-04-16T02:03:28.403Z,100283.81
2023-04-16T02:05:55.810Z,100280.38
2023-04-16T02:08:23.585Z,100268.34
2023-04-16T02:10:51.333Z,100274.34
2023-04-16T02:13:18.453Z,100276.94
2023-04-16T02:15:49.160Z,100282.94
2023-04-16T02:18:20.820Z,100279.50
2023-04-16T02:20:49.760Z,100279.53
2023-04-16T02:23:17.495Z,100288.13
2023-04-16T02:25:46.652Z,100280.38
2023-04-16T02:28:16.725Z,100280.34
2023-04-16T02:30:45.652Z,100276.09
2023-04-16T02:33:14.815Z,100284.69
2023-04-16T02:35:51.905Z,100286.41
2023-04-16T02:38:18.948Z,100291.59
2023-04-16T02:40:46.568Z,100287.28
2023-04-16T02:43:13.751Z,100298.47
2023-04-16T02:45:40.912Z,100293.31
2023-04-16T02:48:09.292Z,100284.72
2023-04-16T02:50:36.406Z,100288.16
2023-04-16T02:53:04.525Z,100294.19
2023-04-16T02:55:31.651Z,100295.91
2023-04-16T02:57:58.734Z,100293.31
2023-04-16T03:00:25.837Z,100289.91
2023-04-16T03:02:53.034Z,100293.34
2023-04-16T03:05:20.173Z,100295.06
2023-04-16T03:07:47.327Z,100296.78
2023-04-16T03:10:15.673Z,100300.22
2023-04-16T03:12:42.786Z,100300.25
2023-04-16T03:15:10.525Z,100301.97
2023-04-16T03:17:37.687Z,100302.00
2023-04-16T03:20:05.622Z,100308.88
2023-04-16T03:22:33.784Z,100306.31
2023-04-16T03:25:00.914Z,100303.75
2023-04-16T03:27:27.947Z,100312.34
2023-04-16T03:29:55.474Z,100307.19
2023-04-16T03:32:22.555Z,100310.63
2023-04-16T03:34:49.798Z,100317.50
2023-04-16T03:37:17.118Z,100308.91
2023-04-16T03:39:44.459Z,100315.81
2023-04-16T03:42:11.935Z,100314.13
2023-04-16T03:44:39.008Z,100318.41
2023-04-16T03:47:06.060Z,100310.66
2023-04-16T03:49:33.102Z,100318.44
2023-04-16T03:52:00.303Z,100321.00
2023-04-16T03:54:27.400Z,100327.91
2023-04-16T03:57:06.207Z,100325.34
2023-04-16T03:59:33.721Z,100338.22
2023-04-16T04:02:01.051Z,100333.06
2023-04-16T04:04:28.330Z,100345.97
2023-04-16T04:06:55.838Z,100347.69
2023-04-16T04:09:23.486Z,100345.09
2023-04-16T04:11:50.926Z,100345.97
2023-04-16T04:14:18.028Z,100351.97
2023-04-16T04:16:45.158Z,100358.88
2023-04-16T04:19:12.799Z,100358.88
2023-04-16T04:21:39.906Z,100361.44
2023-04-16T04:24:07.065Z,100361.44
2023-04-16T04:26:34.739Z,100355.44
2023-04-16T04:29:01.867Z,100364.03
2023-04-16T04:31:30.561Z,100365.75
2023-04-16T04:33:57.884Z,100373.50
2023-04-16T04:36:25.099Z,100365.72
2023-04-16T04:38:52.386Z,100371.75
2023-04-16T04:41:22.932Z,100372.63
2023-04-16T04:43:50.003Z,100360.56
2023-04-16T04:46:17.417Z,100377.78
2023-04-16T04:48:44.533Z,100378.66
2023-04-16T04:51:11.590Z,100379.53
2023-04-16T04:53:38.656Z,100379.53
2023-04-16T04:56:12.176Z,100383.84
2023-04-16T04:58:41.614Z,100388.13
2023-04-16T05:01:08.760Z,100388.13
2023-04-16T05:03:36.236Z,100389.00
2023-04-16T05:06:03.453Z,100393.28
2023-04-16T05:08:30.809Z,100388.13
2023-04-16T05:10:57.894Z,100396.69
2023-04-16T05:13:24.943Z,100365.78
2023-04-16T05:15:52.071Z,100395.00
2023-04-16T05:18:19.138Z,100396.72
2023-04-16T05:20:46.345Z,100413.94
2023-04-16T05:23:13.421Z,100409.66
2023-04-16T05:25:40.458Z,100413.97
2023-04-16T05:28:07.623Z,100410.50
2023-04-16T05:30:34.684Z,100414.78
2023-04-16T05:33:01.798Z,100412.22
2023-04-16T05:35:28.900Z,100424.28
2023-04-16T05:37:56.003Z,100419.09
2023-04-16T05:40:23.001Z,100424.28
2023-04-16T05:42:50.414Z,100421.69
2023-04-16T05:45:17.543Z,100430.28
2023-04-16T05:47:44.829Z,100420.81
2023-04-16T05:50:11.951Z,100425.97
2023-04-16T05:52:39.156Z,100432.88
2023-04-16T05:55:07.392Z,100434.59
2023-04-16T05:57:34.502Z,100433.75
2023-04-16T06:00:01.547Z,100439.75
2023-04-16T06:02:39.585Z,100439.75
2023-04-16T06:05:07.176Z,100443.19
2023-04-16T06:07:34.307Z,100449.22
2023-04-16T06:10:01.419Z,100455.25
2023-04-16T06:12:28.516Z,100448.38
2023-04-16T06:14:56.474Z,100455.25
2023-04-16T06:17:23.703Z,100460.41
2023-04-16T06:19:50.903Z,100458.69
2023-04-16T06:22:18.007Z,100461.28
2023-04-16T06:24:45.176Z,100460.41
2023-04-16T06:27:12.204Z,100463.84
2023-04-16T06:29:41.623Z,100454.38
2023-04-16T06:32:09.361Z,100463.00
2023-04-16T06:34:37.724Z,100463.84
2023-04-16T06:37:04.918Z,100462.13
2023-04-16T06:39:32.088Z,100466.44
2023-04-16T06:41:59.176Z,100471.63
2023-04-16T06:44:26.211Z,100474.19
2023-04-16T06:46:53.398Z,100469.91
2023-04-16T06:49:21.784Z,100473.34
2023-04-16T06:51:48.941Z,100480.22
2023-04-16T06:54:16.940Z,100473.34
2023-04-16T06:56:44.117Z,100477.63
2023-04-16T06:59:11.703Z,100481.09
2023-04-16T07:01:38.966Z,100474.19
2023-04-16T07:04:06.215Z,100478.50
2023-04-16T07:06:33.489Z,100488.81
2023-04-16T07:09:00.567Z,100475.94
2023-04-16T07:11:27.834Z,100487.09
2023-04-16T07:13:55.008Z,100487.09
2023-04-16T07:16:22.199Z,100486.25
2023-04-16T07:18:49.309Z,100489.69
2023-04-16T07:21:16.680Z,100493.97
2023-04-16T07:23:43.786Z,100501.72
2023-04-16T07:26:11.931Z,100500.00
2023-04-16T07:28:39.196Z,100503.44
2023-04-16T07:31:06.541Z,100501.72
2023-04-16T07:33:33.949Z,100508.59
2023-04-16T07:36:01.105Z,100506.88
2023-04-16T07:38:28.211Z,100508.59
2023-04-16T07:40:57.028Z,100511.19
2023-04-16T07:43:24.263Z,100512.03
2023-04-16T07:45:51.313Z,100514.63
2023-04-16T07:48:18.466Z,100512.88
2023-04-16T07:50:45.849Z,100514.63
2023-04-16T07:53:13.083Z,100514.59
2023-04-16T07:55:40.124Z,100518.88
2023-04-16T07:58:09.698Z,100503.38
2023-04-16T08:00:36.936Z,100515.44
2023-04-16T08:03:04.540Z,100516.31
2023-04-16T08:05:31.867Z,100518.88
2023-04-16T08:07:59.178Z,100518.88
2023-04-16T08:10:26.415Z,100525.78
2023-04-16T08:12:54.097Z,100526.63
2023-04-16T08:15:21.402Z,100530.09
2023-04-16T08:17:48.585Z,100527.50
2023-04-16T08:20:19.335Z,100536.97
2023-04-16T08:22:46.706Z,100542.16
2023-04-16T08:25:14.642Z,100541.31
2023-04-16T08:27:41.722Z,100526.66
2023-04-16T08:30:08.948Z,100536.13
2023-04-16T08:32:36.190Z,100544.72
2023-04-16T08:35:03.491Z,100542.19
2023-04-16T08:37:30.716Z,100557.69
2023-04-16T08:39:57.798Z,100554.22
2023-04-16T08:42:32.802Z,100558.53
2023-04-16T08:45:18.931Z,100571.44
2023-04-16T08:47:47.971Z,100563.69
2023-04-16T08:50:23.025Z,100568.88
2023-04-16T08:52:53.071Z,100565.41
2023-04-16T08:55:24.100Z,100569.69
2023-04-16T08:57:57.881Z,100583.44
2023-04-16T09:00:25.121Z,100579.16
2023-04-16T09:02:53.195Z,100586.03
2023-04-16T09:05:22.973Z,100584.31
2023-04-16T09:07:50.460Z,100584.31
2023-04-16T09:10:17.771Z,100591.25
2023-04-16T09:12:45.204Z,100589.50
2023-04-16T09:15:13.890Z,100595.53
2023-04-16T09:17:41.140Z,100582.66
2023-04-16T09:20:11.183Z,100600.72
2023-04-16T09:22:40.220Z,100604.16
2023-04-16T09:25:08.487Z,100608.47
2023-04-16T09:27:36.513Z,100605.00
2023-04-16T09:30:27.626Z,100611.91
2023-04-16T09:33:23.559Z,100610.16
2023-04-16T09:35:52.906Z,100613.63
2023-04-16T09:38:21.358Z,100610.19
2023-04-16T09:40:48.541Z,100612.75
2023-04-16T09:43:19.254Z,100606.72
2023-04-16T09:45:51.019Z,100617.91
2023-04-16T09:48:31.172Z,100618.75
2023-04-16T09:50:59.270Z,100615.34
2023-04-16T09:53:30.974Z,100617.06
2023-04-16T09:56:03.616Z,100629.09
2023-04-16T09:58:30.766Z,100621.34
2023-04-16T10:01:07.839Z,100635.13
2023-04-16T10:03:36.978Z,100634.28
2023-04-16T10:06:08.418Z,100642.91
2023-04-16T10:08:36.349Z,100639.44
2023-04-16T10:11:03.577Z,100626.56
2023-04-16T10:13:31.505Z,100636.91
2023-04-16T10:15:59.041Z,100635.16
2023-04-16T10:18:26.620Z,100638.59
2023-04-16T10:20:53.841Z,100636.00
2023-04-16T10:23:22.432Z,100641.16
2023-04-16T10:25:50.663Z,100647.19
2023-04-16T10:28:17.837Z,100645.47
2023-04-16T10:30:53.044Z,100648.91
2023-04-16T10:33:26.951Z,100648.03
2023-04-16T10:36:08.847Z,100648.03
2023-04-16T10:38:49.571Z,100649.78
2023-04-16T10:41:17.052Z,100648.91
2023-04-16T10:43:46.123Z,100654.09
2023-04-16T10:46:26.923Z,100653.25
2023-04-16T10:48:55.877Z,100660.13
2023-04-16T10:51:31.749Z,100660.13
2023-04-16T10:54:09.541Z,100666.19
2023-04-16T10:56:37.731Z,100660.13
2023-04-16T10:59:06.693Z,100658.41
2023-04-16T11:01:41.368Z,100661.00
2023-04-16T11:04:20.990Z,100665.31
2023-04-16T11:07:19.725Z,100672.19
2023-04-16T11:10:00.879Z,100674.78
2023-04-16T11:12:46.833Z,100669.59
2023-04-16T11:15:15.748Z,100677.34
2023-04-16T11:17:50.753Z,100682.53
2023-04-16T11:20:23.028Z,100676.53
2023-04-16T11:22:57.944Z,100682.53
2023-04-16T11:25:27.936Z,100685.13
2023-04-16T11:27:55.365Z,100686.84
2023-04-16T11:30:34.324Z,100692.88
2023-04-16T11:33:04.187Z,100693.75
2023-04-16T11:35:32.579Z,100694.63
2023-04-16T11:37:59.747Z,100694.59
2023-04-16T11:40:31.500Z,100692.91
2023-04-16T11:43:04.185Z,100696.31
2023-04-16T11:45:31.429Z,100696.31
2023-04-16T11:47:58.687Z,100701.50
2023-04-16T11:50:29.454Z,100700.63
2023-04-16T11:53:03.406Z,100698.06
2023-04-16T11:55:31.267Z,100696.34
2023-04-16T11:57:58.376Z,100698.91
2023-04-16T12:00:25.659Z,100694.59
2023-04-16T12:02:55.355Z,100685.97
2023-04-16T12:05:35.934Z,100698.91
2023-04-16T12:08:12.967Z,100698.06
2023-04-16T12:10:56.560Z,100696.31
2023-04-16T12:13:23.621Z,100703.22
2023-04-16T12:15:56.208Z,100692.91
2023-04-16T12:18:26.383Z,100708.41
2023-04-16T12:20:53.604Z,100697.19
2023-04-16T12:23:31.407Z,100707.53
2023-04-16T12:26:02.889Z,100708.41
2023-04-16T12:28:31.451Z,100704.06
2023-04-16T12:30:58.911Z,100700.63
2023-04-16T12:33:26.336Z,100700.63
2023-04-16T12:35:53.460Z,100704.09
2023-04-16T12:38:22.835Z,100704.06
2023-04-16T12:40:51.702Z,100710.97
2023-04-16T12:43:20.014Z,100704.94
2023-04-16T12:45:47.153Z,100703.22
2023-04-16T12:48:14.428Z,100704.94
2023-04-16T12:50:44.475Z,100698.94
2023-04-16T12:53:12.233Z,100711.84
2023-04-16T12:55:39.445Z,100704.09
2023-04-16T12:58:07.075Z,100711.84
2023-04-16T13:00:34.088Z,100710.13
2023-04-16T13:03:01.378Z,100716.16
2023-04-16T13:05:28.624Z,100703.22
2023-04-16T13:07:55.966Z,100715.28
2023-04-16T13:10:23.793Z,100711.84
2023-04-16T13:12:51.053Z,100717.00
2023-04-16T13:15:20.909Z,100718.72
2023-04-16T13:17:48.196Z,100723.88
2023-04-16T13:20:15.707Z,100718.72
2023-04-16T13:22:42.815Z,100711.84
2023-04-16T13:25:10.630Z,100715.28
2023-04-16T13:27:37.712Z,100717.88
2023-04-16T13:30:05.062Z,100715.28
2023-04-16T13:32:32.319Z,100720.47
2023-04-16T13:34:59.543Z,100720.44
2023-04-16T13:37:26.838Z,100724.75
2023-04-16T13:39:53.970Z,100715.31
2023-04-16T13:42:22.292Z,100717.84
2023-04-16T13:44:53.234Z,100718.75
2023-04-16T13:47:20.398Z,100721.31
2023-04-16T13:49:47.886Z,100726.47
2023-04-16T13:52:14.982Z,100723.91
2023-04-16T13:54:42.896Z,100710.13
2023-04-16T13:57:20.047Z,100725.63
2023-04-16T13:59:47.188Z,100730.78
2023-04-16T14:02:14.424Z,100729.06
2023-04-16T14:04:42.236Z,100735.97
2023-04-16T14:07:09.346Z,100734.22
2023-04-16T14:09:36.780Z,100721.34
2023-04-16T14:12:04.010Z,100717.03
2023-04-16T14:14:31.405Z,100729.06
2023-04-16T14:16:59.420Z,100725.63
2023-04-16T14:19:26.469Z,100733.38
2023-04-16T14:21:54.576Z,100732.50
2023-04-16T14:24:21.640Z,100735.97
2023-04-16T14:26:48.742Z,100738.56
2023-04-16T14:29:15.927Z,100741.13
2023-04-16T14:31:43.123Z,100733.34
2023-04-16T14:34:10.218Z,100729.06
2023-04-16T14:36:37.427Z,100726.50
2023-04-16T14:39:04.979Z,100723.88
2023-04-16T14:41:32.111Z,100735.94
2023-04-16T14:43:59.927Z,100740.25
2023-04-16T14:46:27.326Z,100737.69
2023-04-16T14:48:54.446Z,100740.28
2023-04-16T14:51:21.767Z,100739.41
2023-04-16T14:53:48.926Z,100739.38
2023-04-16T14:56:15.987Z,100743.72
2023-04-16T14:58:43.571Z,100746.31
2023-04-16T15:01:10.827Z,100746.28
2023-04-16T15:03:38.330Z,100745.44
2023-04-16T15:06:05.919Z,100753.22
2023-04-16T15:08:33.088Z,100751.47
2023-04-16T15:11:00.306Z,100749.75
2023-04-16T15:13:33.815Z,100749.75
2023-04-16T15:16:07.467Z,100751.47
2023-04-16T15:18:34.747Z,100747.16
2023-04-16T15:21:01.857Z,100759.22
2023-04-16T15:23:28.949Z,100758.38
2023-04-16T15:25:56.080Z,100761.81
2023-04-16T15:28:23.540Z,100766.09
2023-04-16T15:30:50.685Z,100773.88
2023-04-16T15:33:18.001Z,100754.06
2023-04-16T15:35:45.079Z,100758.34
2023-04-16T15:38:12.196Z,100766.13
2023-04-16T15:40:39.314Z,100759.22
2023-04-16T15:43:06.778Z,100767.81
2023-04-16T15:45:33.780Z,100772.16
2023-04-16T15:48:01.116Z,100766.97
2023-04-16T15:50:28.427Z,100772.16
2023-04-16T15:52:55.642Z,100775.59
2023-04-16T15:55:22.739Z,100771.28
2023-04-16T15:57:49.866Z,100775.56
2023-04-16T16:00:17.401Z,100777.28
2023-04-16T16:02:46.662Z,100775.56
2023-04-16T16:05:15.128Z,100785.03
2023-04-16T16:07:43.280Z,100784.16
2023-04-16T16:10:11.897Z,100777.28
2023-04-16T16:12:40.076Z,100794.50
2023-04-16T16:15:08.011Z,100799.69
2023-04-16T16:17:35.255Z,100803.13
2023-04-16T16:20:02.526Z,100797.97
2023-04-16T16:22:30.025Z,100803.13
2023-04-16T16:24:58.879Z,100803.13
2023-04-16T16:27:26.079Z,100800.56
2023-04-16T16:29:53.173Z,100803.13
2023-04-16T16:32:20.368Z,100804.88
2023-04-16T16:34:47.463Z,100810.03
2023-04-16T16:37:14.717Z,100808.31
2023-04-16T16:39:42.036Z,100813.47
2023-04-16T16:42:09.431Z,100813.47
2023-04-16T16:44:37.140Z,100812.63
2023-04-16T16:47:04.315Z,100812.59
2023-04-16T16:49:31.459Z,100810.00
2023-04-16T16:51:58.569Z,100818.63
2023-04-16T16:54:25.768Z,100812.59
2023-04-16T16:56:53.287Z,100811.72
2023-04-16T16:59:20.489Z,100816.88
2023-04-16T17:01:47.581Z,100813.47
2023-04-16T17:04:15.601Z,100822.03
2023-04-16T17:06:44.194Z,100814.28
2023-04-16T17:09:11.535Z,100815.16
2023-04-16T17:11:38.776Z,100815.16
2023-04-16T17:14:05.997Z,100828.91
2023-04-16T17:16:33.118Z,100822.88
2023-04-16T17:19:01.580Z,100816.88
2023-04-16T17:21:28.731Z,100828.91
2023-04-16T17:23:57.670Z,100821.97
2023-04-16T17:26:24.842Z,100820.25
2023-04-16T17:28:51.956Z,100825.41
2023-04-16T17:31:19.140Z,100822.81
2023-04-16T17:33:46.376Z,100831.44
2023-04-16T17:36:13.450Z,100837.47
2023-04-16T17:38:43.024Z,100840.03
2023-04-16T17:41:12.484Z,100840.91
2023-04-16T17:43:39.613Z,100852.13
2023-04-16T17:46:09.869Z,100856.41
2023-04-16T17:48:37.565Z,100854.66
2023-04-16T17:51:12.106Z,100854.69
2023-04-16T17:53:39.544Z,100866.75
2023-04-16T17:56:07.084Z,100866.75
2023-04-16T17:58:35.444Z,100871.03
2023-04-16T18:01:03.647Z,100872.75
2023-04-16T18:03:31.802Z,100882.22
2023-04-16T18:05:59.298Z,100875.31
2023-04-16T18:08:26.987Z,100888.25
2023-04-16T18:10:55.322Z,100884.78
2023-04-16T18:13:23.242Z,100878.78
2023-04-16T18:15:50.643Z,100892.56
2023-04-16T18:18:18.765Z,100896.84
2023-04-16T18:20:45.960Z,100895.97
2023-04-16T18:23:12.963Z,100895.94
2023-04-16T18:25:40.336Z,100895.94
2023-04-16T18:28:07.564Z,100897.63
2023-04-16T18:30:35.625Z,100901.91
2023-04-16T18:35:32.791Z,100901.00
2023-04-16T18:38:00.282Z,100899.28
2023-04-16T18:40:29.389Z,100902.72
2023-04-16T18:42:56.469Z,100908.75
2023-04-16T18:45:23.589Z,100907.84
2023-04-16T18:47:50.945Z,100907.84
2023-04-16T18:50:18.194Z,100906.13
2023-04-16T18:52:45.331Z,100902.69
2023-04-16T18:55:12.394Z,100909.56
2023-04-16T18:57:39.488Z,100909.56
2023-04-16T19:00:12.669Z,100917.31
2023-04-16T19:02:40.761Z,100918.13
2023-04-16T19:05:09.561Z,100910.41
2023-04-16T19:07:37.778Z,100914.69
2023-04-16T19:10:05.689Z,100912.94
2023-04-16T19:12:32.991Z,100912.94
2023-04-16T19:15:00.270Z,100903.47
2023-04-16T19:17:27.454Z,100911.22
2023-04-16T19:19:54.583Z,100914.63
2023-04-16T19:22:21.657Z,100911.22
2023-04-16T19:24:48.669Z,100913.75
2023-04-16T19:27:15.738Z,100912.94
2023-04-16T19:29:43.615Z,100902.59
2023-04-16T19:32:11.492Z,100912.94
2023-04-16T19:34:39.863Z,100916.31
2023-04-16T19:37:06.828Z,100919.75
2023-04-16T19:39:33.880Z,100926.63
2023-04-16T19:42:02.172Z,100925.75
2023-04-16T19:44:29.222Z,100926.59
2023-04-16T19:46:56.467Z,100935.25
2023-04-16T19:49:25.430Z,100927.50
2023-04-16T19:51:52.507Z,100926.59
2023-04-16T19:54:19.590Z,100936.91
2023-04-16T19:56:46.811Z,100928.28
2023-04-16T19:59:13.784Z,100926.56
2023-04-16T20:01:40.997Z,100942.06
2023-04-16T20:04:08.064Z,100938.59
2023-04-16T20:06:35.118Z,100940.38
2023-04-16T20:09:02.204Z,100949.81
2023-04-16T20:11:29.256Z,100941.25
2023-04-16T20:14:00.281Z,100938.69
2023-04-16T20:16:27.466Z,100942.09
2023-04-16T20:18:54.597Z,100943.78
2023-04-16T20:21:21.831Z,100942.94
2023-04-16T20:23:49.249Z,100939.44
2023-04-16T20:26:18.488Z,100935.13
2023-04-16T20:28:45.797Z,100943.75
2023-04-16T20:31:13.265Z,100945.44
2023-04-16T20:33:40.398Z,100943.72
2023-04-16T20:36:07.831Z,100947.19
2023-04-16T20:38:35.847Z,100948.91
2023-04-16T20:41:20.304Z,100948.91
2023-04-16T20:43:50.324Z,100954.06
2023-04-16T20:46:17.859Z,100954.94
2023-04-16T20:48:45.153Z,100952.34
2023-04-16T20:51:12.335Z,100955.78
2023-04-16T20:53:39.378Z,100954.91
2023-04-16T20:56:07.147Z,100960.06
2023-04-16T20:58:34.212Z,100952.25
2023-04-16T21:01:01.540Z,100958.34
2023-04-16T21:03:28.852Z,100959.16
2023-04-16T21:05:56.148Z,100952.25
2023-04-16T21:08:24.390Z,100954.00
2023-04-16T21:10:51.631Z,100964.31
2023-04-16T21:13:20.814Z,100960.00
2023-04-16T21:15:47.925Z,100969.47
2023-04-16T21:18:15.100Z,100959.09
2023-04-16T21:20:42.064Z,100964.31
2023-04-16T21:23:09.019Z,100969.50
2023-04-16T21:25:36.176Z,100962.56
2023-04-16T21:28:03.071Z,100959.16
2023-04-16T21:30:30.176Z,100958.22
2023-04-16T21:32:57.151Z,100967.66
2023-04-16T21:35:24.113Z,100969.34
2023-04-16T21:37:51.052Z,100965.03
2023-04-16T21:40:18.210Z,100965.00
2023-04-16T21:42:45.256Z,100964.16
2023-04-16T21:45:12.340Z,100962.38
2023-04-16T21:47:39.320Z,100964.09
2023-04-16T21:50:06.902Z,100962.31
2023-04-16T21:52:33.935Z,100964.09
2023-04-16T21:55:01.229Z,100965.75
2023-04-16T21:57:28.345Z,100958.78
2023-04-16T21:59:55.342Z,100962.25
2023-04-16T22:02:22.441Z,100963.09
2023-04-16T22:04:49.606Z,100964.75
2023-04-16T22:07:17.164Z,100962.19
2023-04-16T22:09:44.258Z,100965.59
2023-04-16T22:12:11.323Z,100959.66
2023-04-16T22:14:43.973Z,100955.38
2023-04-16T22:17:15.197Z,100963.97
2023-04-16T22:19:42.575Z,100957.09
2023-04-16T22:22:09.601Z,100962.25
2023-04-16T22:24:36.644Z,100962.25
2023-04-16T22:27:03.807Z,100966.53
2023-04-16T22:29:30.779Z,100967.34
2023-04-16T22:31:57.906Z,100964.81
2023-04-16T22:34:24.922Z,100973.44
2023-04-16T22:36:51.906Z,100973.47
2023-04-16T22:39:18.975Z,100969.16
2023-04-16T22:41:46.051Z,100968.38
2023-04-16T22:44:13.013Z,100974.31
2023-04-16T22:46:40.057Z,100972.56
2023-04-16T22:49:07.051Z,100981.16
2023-04-16T22:51:34.363Z,100988.06
2023-04-16T22:54:01.627Z,100976.00
2023-04-16T22:56:30.479Z,100986.38
2023-04-16T22:58:57.770Z,100981.19
2023-04-16T23:01:24.914Z,100980.41
2023-04-16T23:03:52.856Z,100987.28
2023-04-16T23:06:19.974Z,100982.94
2023-04-16T23:08:46.987Z,100987.22
2023-04-16T23:11:14.057Z,100976.03
2023-04-16T23:13:42.816Z,100983.75
2023-04-16T23:16:09.813Z,100968.16
2023-04-16T23:18:37.099Z,100974.16
2023-04-16T23:21:04.167Z,100979.31
2023-04-16T23:23:31.386Z,100972.41
2023-04-16T23:25:58.399Z,100976.75
2023-04-16T23:28:25.540Z,100977.59
2023-04-16T23:30:53.160Z,100979.34
2023-04-16T23:33:20.949Z,100987.94
2023-04-16T23:35:48.123Z,100967.25
2023-04-16T23:38:15.145Z,100980.16
2023-04-16T23:40:42.361Z,100974.16
2023-04-16T23:43:09.442Z,100972.38
2023-04-16T23:45:36.535Z,100977.50
2023-04-16T23:48:03.828Z,100966.22
2023-04-16T23:50:30.880Z,100974.84
2023-04-16T23:52:57.892Z,100981.84
2023-04-16T23:55:25.544Z,100983.59
2023-04-16T23:57:52.569Z,100977.56
